Time;durP1;ratioP1;P1;durP2;ratioP2;P2;SDS_P1;SDS_P2;PMS_P1;PMS_P2;Temp;Humidity;BMP_temperature;BMP_pressure;BME280_temperature;BME280_humidity;BME280_pressure;Samples;Min_cycle;Max_cycle;Signal;HPM_P1;HPM_P2
2022/08/26 07:09:31;;;;;;;;;;;;;;;20.92;89.94;101409.94;1047544;28;19923;-75
2022/08/26 07:10:04;;;;;;;;;;;;;;;20.90;90.37;101409.41;1047593;28;19935;-77
2022/08/26 07:10:36;;;;;;;;;;;;;;;20.90;90.36;101408.56;1048012;28;20330;-77
2022/08/26 07:11:08;;;;;;;;;;;;;;;20.90;89.92;101414.00;1048410;28;19924;-77
2022/08/26 07:11:40;;;;;;;;;;;;;;;20.94;89.78;101409.66;1047619;28;20370;-77
2022/08/26 07:12:11;;;;;;;;;;;;;;;20.91;89.81;101404.78;1044627;28;19969;-76
2022/08/26 07:12:43;;;;;;;;;;;;;;;20.97;89.45;101414.53;1045857;28;20107;-76
2022/08/26 07:13:17;;;;;;;;;;;;;;;20.91;89.83;101410.19;1044165;28;19966;-76
2022/08/26 07:14:01;;;;;;;;;;;;;;;20.88;89.58;101413.47;1044480;28;19984;-76
2022/08/26 07:14:33;;;;;;;;;;;;;;;20.96;89.55;101418.31;1047331;28;20680;-76
2022/08/26 07:15:04;;;;;;;;;;;;;;;20.98;89.29;101414.25;1043519;28;20370;-76
2022/08/26 07:15:38;;;;;;;;;;;;;;;20.95;89.27;101408.56;1041423;28;20326;-76
2022/08/26 07:16:11;;;;;;;;;;;;;;;20.98;88.85;101405.31;1042422;28;20387;-76
2022/08/26 07:16:43;;;;;;;;;;;;;;;21.04;88.88;101414.25;1047769;28;19995;-76
2022/08/26 07:17:15;;;;;;;;;;;;;;;21.04;88.72;101409.66;1052059;28;19928;-76
2022/08/26 07:17:46;;;;;;;;;;;;;;;21.09;88.71;101400.69;1046854;28;19924;-76
2022/08/26 07:18:18;;;;;;;;;;;;;;;21.02;89.01;101406.41;1047041;28;19958;-76
2022/08/26 07:18:53;;;;;;;;;;;;;;;21.00;89.10;101416.69;1043862;28;20389;-76
2022/08/26 07:19:24;;;;;;;;;;;;;;;20.99;88.96;101406.94;1048971;28;19972;-76
2022/08/26 07:20:02;;;;;;;;;;;;;;;21.02;88.82;101405.59;1050372;28;19932;-75
2022/08/26 07:20:36;;;;;;;;;;;;;;;20.99;88.63;101409.66;1054716;28;19932;-76
2022/08/26 07:21:08;;;;;;;;;;;;;;;21.02;88.65;101400.97;1054474;28;20460;-76
2022/08/26 07:21:42;;;;;;;;;;;;;;;21.05;88.80;101407.75;1052427;28;19947;-76
2022/08/26 07:22:14;;;;;;;;;;;;;;;21.10;88.62;101413.19;1052012;28;19928;-76
2022/08/26 07:22:46;;;;;;;;;;;;;;;21.14;88.66;101409.66;1051647;28;19993;-76
2022/08/26 07:23:18;;;;;;;;;;;;;;;21.15;88.76;101405.84;1052298;28;19958;-76
2022/08/26 07:23:49;;;;;;;;;;;;;;;21.07;88.45;101403.69;1049554;28;19932;-76
2022/08/26 07:24:22;;;;;;;;;;;;;;;21.09;88.22;101404.25;1043433;28;20016;-76
2022/08/26 07:24:58;;;;;;;;;;;;;;;21.07;88.21;101398.25;1043363;28;20378;-76
2022/08/26 07:25:30;;;;;;;;;;;;;;;21.17;87.96;101403.69;1043617;28;19929;-76
2022/08/26 07:26:05;;;;;;;;;;;;;;;21.07;87.67;101409.09;1045038;28;19933;-76
2022/08/26 07:26:38;;;;;;;;;;;;;;;21.07;87.94;101408.28;1047982;28;19936;-75
2022/08/26 07:27:14;;;;;;;;;;;;;;;21.05;88.35;101405.84;1043722;28;19951;-76
2022/08/26 07:27:45;;;;;;;;;;;;;;;21.10;88.52;101414.00;1043004;28;19925;-76
2022/08/26 07:28:24;;;;;;;;;;;;;;;21.04;88.67;101404.22;1046138;28;19940;-76
2022/08/26 07:28:58;;;;;;;;;;;;;;;21.05;88.65;101408.56;1050173;28;19924;-76
2022/08/26 07:29:29;;;;;;;;;;;;;;;21.12;87.88;101411.00;1048168;28;20442;-76
2022/08/26 07:30:01;;;;;;;;;;;;;;;21.11;87.41;101410.19;1045678;28;20390;-76
2022/08/26 07:30:36;;;;;;;;;;;;;;;21.17;87.43;101409.09;1043700;28;19932;-76
2022/08/26 07:31:08;;;;;;;;;;;;;;;21.22;87.05;101409.09;1040459;28;20315;-76
2022/08/26 07:31:40;;;;;;;;;;;;;;;21.25;87.24;101411.28;1043984;28;19931;-76
2022/08/26 07:32:13;;;;;;;;;;;;;;;21.37;86.99;101407.50;1042042;28;20063;-76
2022/08/26 07:32:45;;;;;;;;;;;;;;;21.40;86.78;101407.75;1039576;28;19925;-75
2022/08/26 07:33:16;;;;;;;;;;;;;;;21.41;86.66;101408.56;1039892;28;20007;-76
2022/08/26 07:33:48;;;;;;;;;;;;;;;21.50;86.46;101401.47;1039723;28;20311;-76
2022/08/26 07:34:21;;;;;;;;;;;;;;;21.56;86.46;101411.22;1039734;28;19967;-76
2022/08/26 07:34:53;;;;;;;;;;;;;;;21.44;86.74;101408.00;1051929;28;19932;-76
2022/08/26 07:35:24;;;;;;;;;;;;;;;21.39;86.61;101408.03;1052149;28;19924;-76
2022/08/26 07:35:56;;;;;;;;;;;;;;;21.43;86.33;101409.91;1051480;28;19927;-76
2022/08/26 07:36:29;;;;;;;;;;;;;;;21.36;86.16;101411.25;1051346;28;19975;-76
2022/08/26 07:37:00;;;;;;;;;;;;;;;21.47;86.06;101412.88;1047753;28;19931;-76
2022/08/26 07:37:32;;;;;;;;;;;;;;;21.39;86.29;101406.13;1047622;28;20337;-76
2022/08/26 07:38:09;;;;;;;;;;;;;;;21.36;86.28;101422.09;1047928;28;19996;-76
2022/08/26 07:38:43;;;;;;;;;;;;;;;21.36;86.24;101414.78;1047985;28;19932;-76
2022/08/26 07:39:15;;;;;;;;;;;;;;;21.33;86.08;101418.03;1047997;28;20432;-75
2022/08/26 07:39:46;;;;;;;;;;;;;;;21.35;85.92;101415.06;1041396;28;20020;-76
2022/08/26 07:40:19;;;;;;;;;;;;;;;21.38;85.88;101417.25;1043321;28;19925;-75
2022/08/26 07:40:51;;;;;;;;;;;;;;;21.43;85.75;101418.03;1043814;28;20002;-76
2022/08/26 07:41:23;;;;;;;;;;;;;;;21.37;86.05;101423.75;1044719;28;20322;-76
2022/08/26 07:41:55;;;;;;;;;;;;;;;21.33;86.54;101418.03;1047874;28;19924;-76
2022/08/26 07:42:28;;;;;;;;;;;;;;;21.42;86.44;101423.72;1047975;28;19932;-76
2022/08/26 07:42:59;;;;;;;;;;;;;;;21.47;86.42;101421.00;1044014;28;20434;-76
2022/08/26 07:43:31;;;;;;;;;;;;;;;21.49;86.37;101416.94;1043548;28;20061;-76
2022/08/26 07:44:02;;;;;;;;;;;;;;;21.50;85.84;101423.16;1043147;28;19952;-76
2022/08/26 07:44:35;;;;;;;;;;;;;;;21.52;86.27;101424.50;1040464;28;19940;-76
2022/08/26 07:45:07;;;;;;;;;;;;;;;21.56;85.75;101427.47;1047992;28;19932;-76
2022/08/26 07:45:38;;;;;;;;;;;;;;;21.64;85.43;101424.22;1050850;28;19931;-76
2022/08/26 07:46:12;;;;;;;;;;;;;;;21.57;85.88;101429.09;1052419;28;19924;-76
2022/08/26 07:46:47;;;;;;;;;;;;;;;21.60;85.25;101423.94;1052491;28;19935;-76
2022/08/26 07:47:23;;;;;;;;;;;;;;;21.53;85.67;101426.13;1046657;28;19932;-76
2022/08/26 07:47:57;;;;;;;;;;;;;;;21.56;85.37;101435.59;1048222;28;20110;-76
2022/08/26 07:48:28;;;;;;;;;;;;;;;21.62;84.93;101431.78;1048145;28;20066;-76
2022/08/26 07:49:00;;;;;;;;;;;;;;;21.60;85.34;101436.69;1047721;28;19939;-75
2022/08/26 07:49:33;;;;;;;;;;;;;;;21.66;84.92;101432.06;1047952;28;19955;-76
2022/08/26 07:50:05;;;;;;;;;;;;;;;21.72;84.76;101433.69;1048083;28;20294;-76
2022/08/26 07:50:37;;;;;;;;;;;;;;;21.70;84.84;101433.97;1047655;28;19935;-76
2022/08/26 07:51:21;;;;;;;;;;;;;;;21.75;84.48;101436.66;1048181;28;19931;-76
2022/08/26 07:51:53;;;;;;;;;;;;;;;21.75;84.61;101439.34;1047438;28;19971;-76
2022/08/26 07:52:25;;;;;;;;;;;;;;;21.69;85.24;101435.03;1043497;28;19925;-76
2022/08/26 07:52:58;;;;;;;;;;;;;;;21.71;85.11;101448.34;1048142;28;19973;-76
2022/08/26 07:53:30;;;;;;;;;;;;;;;21.70;85.00;101439.38;1047746;28;19925;-76
2022/08/26 07:54:02;;;;;;;;;;;;;;;21.72;84.60;101437.19;1051470;28;19924;-76
2022/08/26 07:54:36;;;;;;;;;;;;;;;21.69;84.34;101442.38;1053869;28;19924;-76
2022/08/26 07:55:08;;;;;;;;;;;;;;;21.62;84.22;101439.94;1048362;28;19932;-75
2022/08/26 07:55:39;;;;;;;;;;;;;;;21.48;84.48;101452.44;1047809;28;19928;-75
2022/08/26 07:56:11;;;;;;;;;;;;;;;21.50;84.89;101444.84;1048333;28;19924;-75
2022/08/26 07:56:43;;;;;;;;;;;;;;;21.39;84.42;101451.38;1047011;28;20325;-75
2022/08/26 07:57:14;;;;;;;;;;;;;;;21.54;84.74;101444.03;1048021;28;19947;-76
2022/08/26 07:57:49;;;;;;;;;;;;;;;21.55;84.81;101447.53;1047802;28;20490;-76
2022/08/26 07:58:20;;;;;;;;;;;;;;;21.53;84.76;101445.09;1047641;28;19924;-76
2022/08/26 07:58:52;;;;;;;;;;;;;;;21.53;84.81;101447.81;1047067;28;19924;-76
2022/08/26 07:59:24;;;;;;;;;;;;;;;21.53;84.29;101438.88;1047881;28;19947;-76
2022/08/26 07:59:56;;;;;;;;;;;;;;;21.59;84.02;101443.19;1047762;28;20310;-76
2022/08/26 08:00:31;;;;;;;;;;;;;;;21.60;84.11;101442.09;1049247;28;19932;-76
2022/08/26 08:01:03;;;;;;;;;;;;;;;21.54;84.63;101444.03;1046842;28;19925;-76
2022/08/26 08:01:35;;;;;;;;;;;;;;;21.53;84.89;101447.00;1047571;28;19928;-76
2022/08/26 08:02:09;;;;;;;;;;;;;;;21.54;85.03;101443.22;1047999;28;19925;-76
2022/08/26 08:02:43;;;;;;;;;;;;;;;21.63;85.17;101444.25;1047577;28;19924;-76
2022/08/26 08:03:14;;;;;;;;;;;;;;;21.62;84.63;101441.81;1047989;28;19925;-76
2022/08/26 08:03:50;;;;;;;;;;;;;;;21.63;84.30;101444.25;1047951;28;20113;-76
2022/08/26 08:04:22;;;;;;;;;;;;;;;21.69;84.25;101443.19;1047542;28;19931;-77
2022/08/26 08:04:57;;;;;;;;;;;;;;;21.68;84.55;101448.88;1048522;28;19925;-76
2022/08/26 08:05:31;;;;;;;;;;;;;;;21.75;84.22;101444.78;1047917;28;19928;-76
2022/08/26 08:06:04;;;;;;;;;;;;;;;21.71;83.38;101449.13;1048813;28;20290;-76
2022/08/26 08:06:37;;;;;;;;;;;;;;;21.72;83.29;101442.63;1048144;28;19928;-76
2022/08/26 08:07:08;;;;;;;;;;;;;;;21.79;83.40;101451.28;1048656;28;19924;-76
2022/08/26 08:07:45;;;;;;;;;;;;;;;21.64;82.90;101450.50;1046342;28;19928;-77
2022/08/26 08:08:18;;;;;;;;;;;;;;;21.58;82.76;101447.00;1047873;28;19933;-75
2022/08/26 08:08:59;;;;;;;;;;;;;;;21.64;82.89;101447.78;1048808;28;19928;-76
2022/08/26 08:09:31;;;;;;;;;;;;;;;21.63;83.16;101449.69;1039532;28;19988;-76
2022/08/26 08:10:03;;;;;;;;;;;;;;;21.75;83.00;101452.09;1039554;28;20403;-76
2022/08/26 08:10:43;;;;;;;;;;;;;;;21.59;83.07;101454.03;1035545;28;19933;-75
2022/08/26 08:11:19;;;;;;;;;;;;;;;21.68;82.82;101441.56;1036155;28;19933;-75
2022/08/26 08:11:51;;;;;;;;;;;;;;;21.67;82.66;101444.56;1040214;28;19925;-76
2022/08/26 08:12:23;;;;;;;;;;;;;;;21.50;82.50;101450.28;1038557;28;19930;-76
2022/08/26 08:12:56;;;;;;;;;;;;;;;21.65;82.60;101447.53;1041340;28;19929;-75
2022/08/26 08:13:29;;;;;;;;;;;;;;;21.53;83.08;101444.28;1040014;28;19932;-76
2022/08/26 08:14:02;;;;;;;;;;;;;;;21.60;82.94;101444.81;1036049;28;20326;-76
2022/08/26 08:14:38;;;;;;;;;;;;;;;21.62;83.01;101452.66;1031977;28;20390;-76
2022/08/26 08:15:12;;;;;;;;;;;;;;;21.67;82.59;101450.78;1032740;28;19926;-76
2022/08/26 08:15:43;;;;;;;;;;;;;;;21.72;82.58;101450.75;1041398;28;19933;-76
2022/08/26 08:16:15;;;;;;;;;;;;;;;21.76;82.45;101454.53;1046114;28;19964;-76
2022/08/26 08:16:47;;;;;;;;;;;;;;;21.77;82.24;101450.75;1048725;28;20317;-75
2022/08/26 08:17:23;;;;;;;;;;;;;;;21.78;82.22;101449.66;1041736;28;19925;-76
2022/08/26 08:17:56;;;;;;;;;;;;;;;21.76;81.93;101449.13;1044307;28;19932;-76
2022/08/26 08:18:31;;;;;;;;;;;;;;;21.64;82.16;101450.50;1044012;28;20366;-76
2022/08/26 08:19:02;;;;;;;;;;;;;;;21.63;82.47;101448.88;1046435;28;20004;-76
2022/08/26 08:19:34;;;;;;;;;;;;;;;21.72;82.35;101442.63;1048911;28;19974;-76
2022/08/26 08:20:07;;;;;;;;;;;;;;;21.77;82.35;101450.75;1048375;28;19929;-76
2022/08/26 08:20:39;;;;;;;;;;;;;;;21.80;82.38;101450.19;1048646;28;19932;-76
2022/08/26 08:21:15;;;;;;;;;;;;;;;21.88;81.98;101446.91;1048871;28;19932;-76
2022/08/26 08:21:54;;;;;;;;;;;;;;;21.90;81.98;101455.56;1048396;28;20310;-76
2022/08/26 08:22:26;;;;;;;;;;;;;;;21.97;81.57;101449.88;1048449;28;20159;-76
2022/08/26 08:22:57;;;;;;;;;;;;;;;21.78;81.72;101452.38;1048592;28;20639;-76
2022/08/26 08:23:30;;;;;;;;;;;;;;;21.88;81.59;101446.91;1044172;28;19932;-76
2022/08/26 08:24:02;;;;;;;;;;;;;;;21.95;81.07;101453.94;1042923;28;19928;-76
2022/08/26 08:24:33;;;;;;;;;;;;;;;21.90;81.59;101455.56;1043057;28;19925;-76
2022/08/26 08:25:06;;;;;;;;;;;;;;;21.97;81.55;101454.47;1045001;28;19931;-76
2022/08/26 08:25:40;;;;;;;;;;;;;;;21.96;81.54;101452.84;1044205;28;19932;-76
2022/08/26 08:26:12;;;;;;;;;;;;;;;21.88;81.43;101449.59;1044445;28;19985;-76
2022/08/26 08:26:44;;;;;;;;;;;;;;;21.87;81.62;101456.13;1040106;28;19925;-76
2022/08/26 08:27:16;;;;;;;;;;;;;;;21.87;81.66;101453.41;1041137;28;20252;-75
2022/08/26 08:27:54;;;;;;;;;;;;;;;21.87;81.43;101458.03;1044380;28;19929;-76
2022/08/26 08:28:27;;;;;;;;;;;;;;;21.88;81.39;101457.75;1045641;28;19933;-76
2022/08/26 08:28:59;;;;;;;;;;;;;;;21.92;81.61;101457.22;1048186;28;19924;-76
2022/08/26 08:29:30;;;;;;;;;;;;;;;21.92;81.67;101458.03;1049021;28;19931;-76
2022/08/26 08:30:03;;;;;;;;;;;;;;;21.87;81.60;101447.97;1047406;28;20023;-76
2022/08/26 08:30:37;;;;;;;;;;;;;;;21.81;81.75;101456.41;1048824;28;20299;-76
2022/08/26 08:31:09;;;;;;;;;;;;;;;21.93;81.58;101464.25;1044515;28;19936;-76
2022/08/26 08:31:41;;;;;;;;;;;;;;;21.91;81.40;101453.66;1044071;28;20076;-76
2022/08/26 08:32:28;;;;;;;;;;;;;;;21.81;81.18;101451.81;1044271;28;20322;-76
2022/08/26 08:33:02;;;;;;;;;;;;;;;21.80;81.51;101461.03;1047746;28;19931;-76
2022/08/26 08:33:34;;;;;;;;;;;;;;;21.83;81.33;101455.06;1048550;28;19931;-76
2022/08/26 08:34:05;;;;;;;;;;;;;;;21.86;81.75;101457.22;1044035;28;20334;-76
2022/08/26 08:34:37;;;;;;;;;;;;;;;21.92;81.29;101462.66;1044710;28;19925;-76
2022/08/26 08:35:09;;;;;;;;;;;;;;;21.83;81.31;101455.06;1043974;28;20015;-76
2022/08/26 08:35:44;;;;;;;;;;;;;;;21.91;81.32;101461.81;1045195;28;19925;-76
2022/08/26 08:36:16;;;;;;;;;;;;;;;21.87;81.70;101463.44;1048423;28;19928;-76
2022/08/26 08:36:50;;;;;;;;;;;;;;;21.87;82.17;101460.72;1048599;28;19924;-76
2022/08/26 08:37:24;;;;;;;;;;;;;;;21.93;82.06;101459.66;1044674;28;19925;-76
2022/08/26 08:37:55;;;;;;;;;;;;;;;21.73;81.36;101462.41;1043986;28;19933;-76
2022/08/26 08:38:27;;;;;;;;;;;;;;;21.81;81.82;101465.38;1044407;28;19936;-76
2022/08/26 08:38:58;;;;;;;;;;;;;;;21.87;81.36;101461.53;1041604;28;19948;-76
2022/08/26 08:39:30;;;;;;;;;;;;;;;21.84;81.23;101462.09;1046233;28;19940;-75
2022/08/26 08:40:03;;;;;;;;;;;;;;;21.78;81.84;101465.94;1048074;28;20029;-76
2022/08/26 08:40:34;;;;;;;;;;;;;;;21.77;81.92;101467.00;1044245;28;19932;-76
2022/08/26 08:41:12;;;;;;;;;;;;;;;21.84;81.45;101462.09;1044139;28;20362;-76
2022/08/26 08:41:53;;;;;;;;;;;;;;;21.76;81.17;101470.81;1045882;28;19931;-75
2022/08/26 08:42:44;;;;;;;;;;;;;;;21.76;81.27;101457.25;1041307;28;19926;-76
2022/08/26 08:43:26;;;;;;;;;;;;;;;21.85;81.00;101458.31;1043437;28;19970;-76
2022/08/26 08:43:58;;;;;;;;;;;;;;;21.82;81.14;101463.47;1049167;28;20023;-76
2022/08/26 08:44:30;;;;;;;;;;;;;;;21.76;81.03;101459.97;1043963;28;20393;-75
2022/08/26 08:45:10;;;;;;;;;;;;;;;21.71;81.21;101464.59;1039807;28;19925;-76
2022/08/26 08:45:43;;;;;;;;;;;;;;;21.81;80.85;101468.09;1039117;28;19925;-76
2022/08/26 08:46:18;;;;;;;;;;;;;;;21.73;81.00;101463.22;1039950;28;19925;-75
2022/08/26 08:46:51;;;;;;;;;;;;;;;21.83;80.72;101460.47;1046100;28;19924;-76
2022/08/26 08:47:22;;;;;;;;;;;;;;;21.94;80.76;101455.03;1045348;28;20279;-76
2022/08/26 08:47:56;;;;;;;;;;;;;;;21.96;80.86;101456.38;1047509;28;19932;-77
2022/08/26 08:48:29;;;;;;;;;;;;;;;21.83;80.76;101448.81;1046041;28;20004;-76
2022/08/26 08:49:02;;;;;;;;;;;;;;;21.90;80.26;101454.75;1045132;28;20384;-76
2022/08/26 08:49:34;;;;;;;;;;;;;;;21.94;80.21;101455.03;1046307;28;19957;-76
2022/08/26 08:50:11;;;;;;;;;;;;;;;21.98;80.02;101456.09;1048254;28;19924;-76
2022/08/26 08:50:45;;;;;;;;;;;;;;;21.99;79.81;101452.31;1044167;28;19984;-76
2022/08/26 08:51:31;;;;;;;;;;;;;;;21.98;80.08;101456.09;1044100;28;19925;-76
2022/08/26 08:52:08;;;;;;;;;;;;;;;21.99;80.61;101457.72;1035106;28;19933;-76
2022/08/26 08:52:42;;;;;;;;;;;;;;;22.05;80.62;101451.22;1035976;28;19968;-76
2022/08/26 08:53:22;;;;;;;;;;;;;;;22.05;80.86;101459.34;1031254;28;19926;-76
2022/08/26 08:53:54;;;;;;;;;;;;;;;21.99;80.54;101455.00;1031692;28;19962;-76
2022/08/26 08:54:25;;;;;;;;;;;;;;;22.07;80.69;101451.75;1037319;28;19929;-76
2022/08/26 08:54:57;;;;;;;;;;;;;;;22.08;80.43;101451.47;1042988;28;19925;-76
2022/08/26 08:55:31;;;;;;;;;;;;;;;22.13;80.43;101448.72;1043985;28;19929;-76
2022/08/26 08:56:23;;;;;;;;;;;;;;;22.15;80.50;101453.88;1043507;28;19984;-76
2022/08/26 08:57:02;;;;;;;;;;;;;;;22.10;80.06;101448.47;1039495;28;19932;-76
2022/08/26 08:57:34;;;;;;;;;;;;;;;22.19;80.26;101457.69;1039381;28;19925;-76
2022/08/26 08:58:07;;;;;;;;;;;;;;;22.19;79.93;101463.09;1039328;28;19929;-76
2022/08/26 08:58:50;;;;;;;;;;;;;;;22.23;79.84;101453.31;1041682;28;20032;-76
2022/08/26 08:59:25;;;;;;;;;;;;;;;22.17;79.27;101454.41;1042126;28;19925;-76
2022/08/26 09:00:06;;;;;;;;;;;;;;;22.18;79.20;101456.03;1047681;28;20357;-76
2022/08/26 09:00:40;;;;;;;;;;;;;;;22.15;78.97;101451.97;1043634;28;19925;-76
2022/08/26 09:01:17;;;;;;;;;;;;;;;22.06;79.51;101450.94;1047994;28;19954;-76
2022/08/26 09:02:06;;;;;;;;;;;;;;;22.09;79.30;101452.28;1039486;28;19971;-75
2022/08/26 09:02:44;;;;;;;;;;;;;;;21.88;80.18;101452.31;1043793;28;20019;-76
2022/08/26 09:03:15;;;;;;;;;;;;;;;21.85;80.19;101458.31;1043542;28;19933;-75
2022/08/26 09:03:53;;;;;;;;;;;;;;;21.93;80.47;101448.00;1047637;28;19924;-76
2022/08/26 09:04:42;;;;;;;;;;;;;;;22.05;79.78;101453.94;1043927;28;19992;-76
2022/08/26 09:05:14;;;;;;;;;;;;;;;22.09;79.90;101460.41;1043768;28;20027;-75
2022/08/26 09:05:50;;;;;;;;;;;;;;;22.11;79.66;101458.22;1040070;28;20234;-76
2022/08/26 09:06:21;;;;;;;;;;;;;;;22.16;79.21;101452.78;1044254;28;19931;-75
2022/08/26 09:06:53;;;;;;;;;;;;;;;22.15;79.59;101457.41;1043366;28;20303;-76
2022/08/26 09:07:26;;;;;;;;;;;;;;;22.06;79.19;101455.56;1041099;28;19928;-76
2022/08/26 09:07:57;;;;;;;;;;;;;;;22.09;79.22;101457.69;1048379;28;19931;-76
2022/08/26 09:08:30;;;;;;;;;;;;;;;21.99;79.70;101452.31;1047997;28;20275;-76
2022/08/26 09:09:02;;;;;;;;;;;;;;;22.12;79.70;101459.84;1049227;28;19925;-76
2022/08/26 09:09:38;;;;;;;;;;;;;;;22.22;79.10;101454.41;1055750;28;20549;-76
2022/08/26 09:10:16;;;;;;;;;;;;;;;22.22;78.30;101454.41;1048450;28;19925;-76
2022/08/26 09:10:49;;;;;;;;;;;;;;;22.26;78.30;101458.19;1052468;28;19931;-76
2022/08/26 09:11:21;;;;;;;;;;;;;;;22.34;78.43;101454.06;1052000;28;19931;-76
2022/08/26 09:11:55;;;;;;;;;;;;;;;22.32;77.88;101457.06;1054084;28;19924;-76
2022/08/26 09:12:29;;;;;;;;;;;;;;;22.27;77.46;101448.94;1055847;28;20401;-76
2022/08/26 09:13:04;;;;;;;;;;;;;;;22.36;77.74;101449.97;1053028;28;20019;-76
2022/08/26 09:13:35;;;;;;;;;;;;;;;22.39;77.01;101452.13;1052564;28;20508;-76
2022/08/26 09:14:07;;;;;;;;;;;;;;;22.54;77.18;101453.13;1052537;28;19924;-76
2022/08/26 09:14:38;;;;;;;;;;;;;;;22.69;77.13;101445.69;1047477;28;20020;-76
2022/08/26 09:15:36;;;;;;;;;;;;;;;22.82;76.29;101449.72;1044238;28;19924;-76
2022/08/26 09:16:09;;;;;;;;;;;;;;;22.90;75.93;101451.81;1035679;28;19930;-76
2022/08/26 09:16:51;;;;;;;;;;;;;;;22.84;75.80;101458.38;1043520;28;20394;-76
2022/08/26 09:17:30;;;;;;;;;;;;;;;23.11;75.03;101450.56;1040569;28;19930;-76
2022/08/26 09:18:04;;;;;;;;;;;;;;;23.21;74.54;101452.38;1051672;28;19947;-76
2022/08/26 09:18:43;;;;;;;;;;;;;;;23.26;74.64;101443.34;1052620;28;20333;-75
2022/08/26 09:19:20;;;;;;;;;;;;;;;23.22;73.44;101450.47;1055615;28;20317;-76
2022/08/26 09:19:52;;;;;;;;;;;;;;;23.06;73.72;101445.16;1049403;28;19960;-76
2022/08/26 09:20:27;;;;;;;;;;;;;;;23.19;73.47;101446.41;1048051;28;19928;-76
2022/08/26 09:21:04;;;;;;;;;;;;;;;23.17;73.72;101445.06;1048351;28;19951;-76
2022/08/26 09:21:35;;;;;;;;;;;;;;;23.32;72.48;101437.59;1051415;28;20336;-76
2022/08/26 09:22:07;;;;;;;;;;;;;;;23.35;72.58;101447.88;1052700;28;19931;-76
2022/08/26 09:22:40;;;;;;;;;;;;;;;23.37;72.85;101445.69;1051441;28;19932;-76
2022/08/26 09:23:14;;;;;;;;;;;;;;;23.53;72.85;101449.06;1050479;28;19924;-76
2022/08/26 09:23:49;;;;;;;;;;;;;;;23.55;73.30;101446.03;1048278;28;19924;-76
2022/08/26 09:24:23;;;;;;;;;;;;;;;23.50;73.50;101443.38;1047929;28;19948;-76
2022/08/26 09:25:00;;;;;;;;;;;;;;;23.59;73.10;101450.66;1050656;28;20442;-76
2022/08/26 09:25:32;;;;;;;;;;;;;;;23.54;72.79;101442.50;1052748;28;19924;-76
2022/08/26 09:26:13;;;;;;;;;;;;;;;23.55;72.67;101446.84;1052463;28;19924;-76
2022/08/26 09:26:46;;;;;;;;;;;;;;;23.47;72.78;101444.78;1048580;28;19925;-77
2022/08/26 09:27:44;;;;;;;;;;;;;;;23.58;72.74;101446.34;1048363;28;20824;-76
2022/08/26 09:28:17;;;;;;;;;;;;;;;23.36;72.58;101438.63;1049602;28;19930;-76
2022/08/26 09:28:59;;;;;;;;;;;;;;;23.46;72.67;101445.88;1052460;28;19932;-76
2022/08/26 09:29:34;;;;;;;;;;;;;;;23.39;73.05;101448.13;1043666;28;20003;-76
2022/08/26 09:30:07;;;;;;;;;;;;;;;23.11;73.09;101442.41;1039394;28;20071;-76
2022/08/26 09:30:41;;;;;;;;;;;;;;;23.16;72.97;101449.69;1035817;28;19932;-76
2022/08/26 09:31:21;;;;;;;;;;;;;;;23.16;73.72;101446.16;1039243;28;20422;-75
2022/08/26 09:32:13;;;;;;;;;;;;;;;23.28;73.31;101444.69;1050902;28;20324;-76
2022/08/26 09:32:56;;;;;;;;;;;;;;;23.27;73.72;101445.78;1052763;28;19924;-76
2022/08/26 09:33:28;;;;;;;;;;;;;;;23.21;73.88;101451.56;1055706;28;19928;-75
2022/08/26 09:34:03;;;;;;;;;;;;;;;22.96;74.09;101455.28;1051737;28;20019;-76
2022/08/26 09:34:35;;;;;;;;;;;;;;;22.96;74.18;101445.25;1048272;28;19924;-76
2022/08/26 09:35:22;;;;;;;;;;;;;;;23.02;74.35;101449.56;1047973;28;19924;-76
2022/08/26 09:36:10;;;;;;;;;;;;;;;22.92;74.77;101455.06;1052794;28;19931;-76
2022/08/26 09:36:43;;;;;;;;;;;;;;;22.99;75.02;101455.53;1056412;28;19923;-76
2022/08/26 09:37:14;;;;;;;;;;;;;;;23.02;74.58;101448.75;1056131;28;19924;-76
2022/08/26 09:37:46;;;;;;;;;;;;;;;22.82;74.98;101452.44;1048842;28;20395;-76
2022/08/26 09:38:27;;;;;;;;;;;;;;;22.86;75.11;101445.34;1046085;28;19992;-76
2022/08/26 09:38:59;;;;;;;;;;;;;;;22.93;74.89;101456.69;1048373;28;20334;-76
2022/08/26 09:39:35;;;;;;;;;;;;;;;22.85;74.63;101451.03;1048175;28;19925;-76
2022/08/26 09:40:12;;;;;;;;;;;;;;;22.85;74.13;101449.13;1048074;28;19925;-76
2022/08/26 09:40:47;;;;;;;;;;;;;;;22.99;74.19;101444.66;1050138;28;20019;-76
2022/08/26 09:41:30;;;;;;;;;;;;;;;23.03;73.75;101448.47;1048335;28;20066;-76
2022/08/26 09:42:13;;;;;;;;;;;;;;;23.17;73.86;101445.88;1052135;28;19924;-76
2022/08/26 09:43:02;;;;;;;;;;;;;;;23.40;73.90;101450.56;1052483;28;19924;-76
2022/08/26 09:43:34;;;;;;;;;;;;;;;23.50;71.61;101446.91;1046012;28;19928;-76
2022/08/26 09:44:16;;;;;;;;;;;;;;;23.53;71.76;101443.63;1038333;28;19925;-76
2022/08/26 09:44:53;;;;;;;;;;;;;;;23.62;72.33;101447.38;1040541;28;19925;-76
2022/08/26 09:45:26;;;;;;;;;;;;;;;23.76;70.89;101446.66;1044896;28;19955;-76
2022/08/26 09:46:33;;;;;;;;;;;;;;;23.91;70.49;101443.78;1047888;28;19936;-76
2022/08/26 09:47:05;;;;;;;;;;;;;;;23.97;69.65;101437.16;1043369;28;20310;-75
2022/08/26 09:47:51;;;;;;;;;;;;;;;24.13;69.53;101440.50;1043503;28;20354;-76
2022/08/26 09:48:30;;;;;;;;;;;;;;;24.11;69.36;101438.09;1037574;28;20386;-75
2022/08/26 09:49:28;;;;;;;;;;;;;;;24.17;69.23;101438.81;1035721;28;20015;-76
2022/08/26 09:50:24;;;;;;;;;;;;;;;23.88;69.02;101434.28;1048975;28;20017;-76
2022/08/26 09:51:18;;;;;;;;;;;;;;;23.93;69.12;101447.00;1052640;28;19982;-76
2022/08/26 09:52:12;;;;;;;;;;;;;;;23.86;69.73;101441.94;1052621;28;20406;-76
2022/08/26 09:52:44;;;;;;;;;;;;;;;23.87;70.10;101446.28;1048232;28;19976;-76
2022/08/26 09:53:17;;;;;;;;;;;;;;;23.83;69.92;101442.50;1047404;28;20298;-76
2022/08/26 09:53:52;;;;;;;;;;;;;;;23.99;69.86;101445.84;1043530;28;19925;-76
2022/08/26 09:54:25;;;;;;;;;;;;;;;23.85;69.38;101444.94;1045233;28;20939;-76
2022/08/26 09:55:04;;;;;;;;;;;;;;;23.86;69.47;101441.13;1044085;28;20299;-76
2022/08/26 09:55:38;;;;;;;;;;;;;;;23.61;70.14;101440.31;1046285;28;19924;-76
2022/08/26 09:56:11;;;;;;;;;;;;;;;23.74;70.09;101445.03;1041493;28;19926;-75
2022/08/26 09:56:45;;;;;;;;;;;;;;;23.94;69.03;101438.56;1045637;28;19988;-76
2022/08/26 09:57:18;;;;;;;;;;;;;;;24.05;69.07;101439.22;1048032;28;19995;-76
2022/08/26 09:57:50;;;;;;;;;;;;;;;23.99;68.63;101437.69;1049328;28;19924;-76
2022/08/26 09:58:35;;;;;;;;;;;;;;;24.05;68.58;101434.59;1048256;28;20373;-76
2022/08/26 09:59:09;;;;;;;;;;;;;;;24.10;68.69;101441.88;1047723;28;19932;-76
2022/08/26 09:59:41;;;;;;;;;;;;;;;24.20;69.08;101441.75;1048123;28;20325;-76
2022/08/26 10:00:37;;;;;;;;;;;;;;;24.17;68.81;101442.34;1050984;28;20297;-76
2022/08/26 10:01:35;;;;;;;;;;;;;;;24.26;68.63;101440.59;1047807;28;19935;-76
2022/08/26 10:02:21;;;;;;;;;;;;;;;24.41;67.90;101441.53;1046574;28;19924;-75
2022/08/26 10:02:53;;;;;;;;;;;;;;;24.12;68.64;101436.97;1045671;28;19929;-76
2022/08/26 10:03:32;;;;;;;;;;;;;;;24.28;68.16;101441.13;1050347;28;19924;-76
2022/08/26 10:04:05;;;;;;;;;;;;;;;23.97;69.22;101445.34;1052341;28;19924;-76
2022/08/26 10:04:37;;;;;;;;;;;;;;;23.99;68.70;101445.84;1047406;28;19925;-75
2022/08/26 10:05:09;;;;;;;;;;;;;;;24.25;68.21;101447.13;1048030;28;20390;-76
2022/08/26 10:05:44;;;;;;;;;;;;;;;24.22;68.22;101445.00;1052043;28;20132;-76
2022/08/26 10:06:16;;;;;;;;;;;;;;;24.43;67.64;101433.88;1049324;28;20464;-76
2022/08/26 10:06:53;;;;;;;;;;;;;;;24.28;68.58;101443.03;1051909;28;19924;-75
2022/08/26 10:07:34;;;;;;;;;;;;;;;24.30;68.20;101438.91;1050176;28;20061;-76
2022/08/26 10:08:16;;;;;;;;;;;;;;;24.34;68.60;101448.13;1048319;28;19925;-76
2022/08/26 10:08:50;;;;;;;;;;;;;;;24.48;67.77;101450.94;1048194;28;20301;-76
2022/08/26 10:09:24;;;;;;;;;;;;;;;24.40;68.96;101445.34;1048149;28;19924;-76